Time;durP1;ratioP1;P1;durP2;ratioP2;P2;SDS_P1;SDS_P2;PMS_P1;PMS_P2;Temp;Humidity;BMP_temperature;BMP_pressure;BME280_temperature;BME280_humidity;BME280_pressure;Samples;Min_cycle;Max_cycle;Signal;HPM_P1;HPM_P2
2021/11/07 00:01:52;;;;;;;20.75;12.68;;;;;;;;;;5016981;28;20198;-72
2021/11/07 00:04:30;;;;;;;18.52;12.98;;;;;;;;;;5007980;28;20548;-73
2021/11/07 00:09:36;;;;;;;21.27;14.13;;;;;;;;;;5010787;28;20189;-74
2021/11/07 00:12:13;;;;;;;17.50;14.00;;;;;;;;;;5019349;28;20218;-74
2021/11/07 00:14:39;;;;;;;19.00;14.20;;;;;;;;;;5009978;28;20280;-74
2021/11/07 00:17:05;;;;;;;17.87;13.70;;;;;;;;;;5025557;28;20211;-75
2021/11/07 00:19:35;;;;;;;17.73;13.90;;;;;;;;;;5018070;28;20193;-73
2021/11/07 00:22:47;;;;;;;19.53;14.17;;;;;;;;;;5007585;28;20182;-73
2021/11/07 00:25:03;;;;;;;17.73;13.80;;;;;;;;;;5017627;28;20335;-73
2021/11/07 00:27:33;;;;;;;19.90;14.20;;;;;;;;;;5011990;28;20189;-73
2021/11/07 00:35:45;;;;;;;16.70;12.98;;;;;;;;;;5019555;28;20186;-73
2021/11/07 00:38:16;;;;;;;16.05;13.15;;;;;;;;;;5018816;28;20206;-73
2021/11/07 00:41:01;;;;;;;16.83;12.43;;;;;;;;;;5020065;28;20197;-74
2021/11/07 00:43:33;;;;;;;14.67;12.20;;;;;;;;;;5018907;28;20186;-73
2021/11/07 00:46:13;;;;;;;15.43;13.18;;;;;;;;;;5019333;28;20249;-76
2021/11/07 00:49:44;;;;;;;13.88;12.38;;;;;;;;;;5017013;28;20772;-74
2021/11/07 00:51:46;;;;;;;14.67;13.20;;;;;;;;;;5004241;28;20275;-75
2021/11/07 00:54:18;;;;;;;14.07;11.40;;;;;;;;;;5019233;28;20174;-74
2021/11/07 00:59:19;;;;;;;15.18;12.00;;;;;;;;;;5014778;28;20231;-73
2021/11/07 01:01:59;;;;;;;13.77;11.40;;;;;;;;;;5019562;28;20186;-73
2021/11/07 01:04:27;;;;;;;12.18;10.90;;;;;;;;;;5012154;28;20190;-73
2021/11/07 01:06:52;;;;;;;11.70;10.35;;;;;;;;;;5016586;28;20201;-73
2021/11/07 01:09:18;;;;;;;12.75;10.10;;;;;;;;;;5010069;28;20186;-74
2021/11/07 01:11:43;;;;;;;11.47;10.30;;;;;;;;;;5027687;28;20351;-74
2021/11/07 01:14:11;;;;;;;13.70;10.50;;;;;;;;;;5009271;28;20219;-73
2021/11/07 01:16:37;;;;;;;12.33;10.30;;;;;;;;;;5017446;28;20252;-73
2021/11/07 01:19:04;;;;;;;12.40;10.93;;;;;;;;;;5010155;28;20197;-73
2021/11/07 01:21:34;;;;;;;11.18;9.80;;;;;;;;;;5014119;28;20189;-73
2021/11/07 01:24:03;;;;;;;14.10;10.35;;;;;;;;;;5009223;28;20190;-74
2021/11/07 01:26:39;;;;;;;11.13;9.80;;;;;;;;;;5011664;28;20186;-74
2021/11/07 01:29:13;;;;;;;11.07;9.95;;;;;;;;;;5007050;28;20193;-75
2021/11/07 01:31:40;;;;;;;14.87;10.47;;;;;;;;;;5016788;28;20643;-74
2021/11/07 01:34:10;;;;;;;14.77;11.33;;;;;;;;;;5009275;28;20228;-71
2021/11/07 01:36:44;;;;;;;11.93;10.73;;;;;;;;;;5031563;28;20292;-74
2021/11/07 01:39:15;;;;;;;13.38;10.68;;;;;;;;;;5008348;28;20300;-73
2021/11/07 01:42:01;;;;;;;11.55;10.27;;;;;;;;;;5018056;28;20201;-74
2021/11/07 01:44:37;;;;;;;11.77;10.52;;;;;;;;;;5009591;28;20203;-74
2021/11/07 01:47:03;;;;;;;11.15;10.05;;;;;;;;;;5018609;28;20269;-75
2021/11/07 01:49:35;;;;;;;12.05;10.23;;;;;;;;;;5015713;28;20300;-77
2021/11/07 01:52:03;;;;;;;12.67;11.33;;;;;;;;;;5014992;28;20194;-76
2021/11/07 01:54:35;;;;;;;13.73;11.65;;;;;;;;;;5018027;28;20642;-75
2021/11/07 01:57:01;;;;;;;14.38;11.70;;;;;;;;;;5007032;28;20273;-73
2021/11/07 01:59:26;;;;;;;15.02;12.07;;;;;;;;;;5019166;28;20273;-73
2021/11/07 02:01:58;;;;;;;16.13;12.95;;;;;;;;;;5012866;28;20228;-74
2021/11/07 02:04:24;;;;;;;18.02;13.35;;;;;;;;;;5018340;28;20192;-74
2021/11/07 02:06:50;;;;;;;14.90;12.70;;;;;;;;;;5009947;28;20186;-74
2021/11/07 02:09:16;;;;;;;17.48;13.95;;;;;;;;;;5017948;28;20233;-73
2021/11/07 02:11:42;;;;;;;18.42;13.48;;;;;;;;;;5012554;28;20253;-74
2021/11/07 02:14:08;;;;;;;18.98;15.13;;;;;;;;;;5017645;28;20190;-74
2021/11/07 02:16:33;;;;;;;19.00;15.82;;;;;;;;;;5010859;28;20267;-74
2021/11/07 02:18:58;;;;;;;22.58;15.75;;;;;;;;;;5020552;28;20220;-75
2021/11/07 02:21:24;;;;;;;19.83;14.60;;;;;;;;;;5012059;28;20204;-75
2021/11/07 02:23:49;;;;;;;19.83;15.73;;;;;;;;;;5016818;28;20189;-76
2021/11/07 02:26:15;;;;;;;22.00;14.88;;;;;;;;;;5014019;28;20267;-75
2021/11/07 02:28:45;;;;;;;18.50;15.13;;;;;;;;;;5010785;28;20197;-75
2021/11/07 02:31:13;;;;;;;17.90;14.93;;;;;;;;;;5031366;28;20190;-76
2021/11/07 02:33:39;;;;;;;21.83;16.10;;;;;;;;;;5010372;28;20638;-76
2021/11/07 02:36:08;;;;;;;23.25;16.20;;;;;;;;;;5017982;28;20640;-77
2021/11/07 02:38:35;;;;;;;23.30;17.25;;;;;;;;;;5010994;28;20724;-77
2021/11/07 02:41:00;;;;;;;21.92;15.98;;;;;;;;;;5012829;28;20333;-76
2021/11/07 02:43:26;;;;;;;21.75;16.52;;;;;;;;;;5015219;28;20831;-75
2021/11/07 02:45:51;;;;;;;22.17;16.60;;;;;;;;;;5021719;28;20636;-77
2021/11/07 02:48:17;;;;;;;24.95;17.50;;;;;;;;;;5014594;28;20202;-77
2021/11/07 02:50:42;;;;;;;23.85;17.17;;;;;;;;;;5021676;28;20222;-76
2021/11/07 02:53:08;;;;;;;23.92;18.52;;;;;;;;;;5014994;28;20199;-76
2021/11/07 02:55:33;;;;;;;19.52;16.17;;;;;;;;;;5014690;28;20182;-78
2021/11/07 02:58:00;;;;;;;20.92;16.90;;;;;;;;;;5019764;28;20566;-77
2021/11/07 03:00:30;;;;;;;26.27;17.50;;;;;;;;;;5011559;28;20200;-76
2021/11/07 03:02:56;;;;;;;27.15;18.73;;;;;;;;;;5017566;28;20186;-75
2021/11/07 03:05:22;;;;;;;25.20;17.85;;;;;;;;;;5012217;28;20556;-75
2021/11/07 03:07:48;;;;;;;32.47;18.80;;;;;;;;;;5020439;28;20183;-74
2021/11/07 03:10:17;;;;;;;24.40;18.40;;;;;;;;;;5009819;28;20186;-74
2021/11/07 03:12:43;;;;;;;30.63;19.70;;;;;;;;;;5019080;28;20583;-74
2021/11/07 03:15:12;;;;;;;26.70;20.45;;;;;;;;;;5006129;28;20545;-72
2021/11/07 03:17:37;;;;;;;23.08;18.05;;;;;;;;;;5019749;28;20198;-72
2021/11/07 03:20:05;;;;;;;28.08;15.65;;;;;;;;;;5012549;28;20192;-74
2021/11/07 03:22:31;;;;;;;25.15;15.32;;;;;;;;;;5019459;28;20185;-73
2021/11/07 03:24:57;;;;;;;28.30;16.42;;;;;;;;;;5011987;28;20637;-73
2021/11/07 03:27:30;;;;;;;26.75;15.20;;;;;;;;;;5018391;28;20182;-73
2021/11/07 03:29:59;;;;;;;19.83;12.88;;;;;;;;;;5021152;28;20180;-74
2021/11/07 03:32:31;;;;;;;27.77;13.85;;;;;;;;;;5011012;28;20531;-74
2021/11/07 03:35:01;;;;;;;19.85;11.15;;;;;;;;;;5021082;28;20621;-73
2021/11/07 03:37:29;;;;;;;18.73;10.48;;;;;;;;;;5011522;28;20693;-73
2021/11/07 03:39:58;;;;;;;18.83;11.15;;;;;;;;;;5021083;28;20269;-73
2021/11/07 03:42:25;;;;;;;21.08;10.00;;;;;;;;;;5009830;28;20312;-73
2021/11/07 03:44:51;;;;;;;16.02;9.48;;;;;;;;;;5018738;28;20201;-72
2021/11/07 03:47:17;;;;;;;17.40;8.30;;;;;;;;;;5009205;28;20197;-73
2021/11/07 03:49:42;;;;;;;25.55;8.02;;;;;;;;;;5018450;28;20532;-73
2021/11/07 03:52:10;;;;;;;16.48;7.55;;;;;;;;;;5008867;28;20277;-73
2021/11/07 03:54:36;;;;;;;20.42;7.28;;;;;;;;;;5020656;28;21099;-73
2021/11/07 03:57:03;;;;;;;19.38;7.28;;;;;;;;;;5011926;28;20222;-73
2021/11/07 03:59:29;;;;;;;16.27;6.65;;;;;;;;;;5017984;28;20182;-73
2021/11/07 04:01:54;;;;;;;14.90;6.97;;;;;;;;;;5010377;28;20272;-73
2021/11/07 04:04:20;;;;;;;17.17;6.65;;;;;;;;;;5019546;28;23486;-73
2021/11/07 04:06:46;;;;;;;17.55;7.82;;;;;;;;;;5016838;28;20548;-73
2021/11/07 04:09:11;;;;;;;19.15;8.07;;;;;;;;;;5011368;28;20577;-73
2021/11/07 04:11:39;;;;;;;15.90;7.80;;;;;;;;;;5019044;28;20340;-73
2021/11/07 04:14:06;;;;;;;16.60;8.40;;;;;;;;;;5010704;28;20188;-72
2021/11/07 04:16:33;;;;;;;16.15;8.90;;;;;;;;;;5018792;28;20210;-73
2021/11/07 04:18:58;;;;;;;18.48;9.88;;;;;;;;;;5009831;28;20191;-73
2021/11/07 04:21:24;;;;;;;21.98;9.98;;;;;;;;;;5019450;28;20656;-73
2021/11/07 04:23:49;;;;;;;28.08;10.40;;;;;;;;;;5008411;28;20535;-73
2021/11/07 04:26:15;;;;;;;22.33;10.48;;;;;;;;;;5017817;28;20193;-73
2021/11/07 04:28:41;;;;;;;22.83;9.52;;;;;;;;;;5008832;28;20654;-73
2021/11/07 04:31:06;;;;;;;22.60;9.63;;;;;;;;;;5016729;28;20178;-72
2021/11/07 04:33:32;;;;;;;24.38;9.90;;;;;;;;;;5016035;28;20652;-72
2021/11/07 04:35:59;;;;;;;20.88;8.45;;;;;;;;;;5014800;28;20198;-73
2021/11/07 04:38:25;;;;;;;28.58;9.32;;;;;;;;;;5018666;28;20270;-73
2021/11/07 04:40:50;;;;;;;21.42;8.00;;;;;;;;;;5010496;28;20208;-73
2021/11/07 04:43:17;;;;;;;21.98;7.43;;;;;;;;;;5016910;28;20304;-74
2021/11/07 04:45:43;;;;;;;21.05;7.03;;;;;;;;;;5009654;28;20285;-74
2021/11/07 04:48:08;;;;;;;20.70;6.43;;;;;;;;;;5016724;28;20288;-74
2021/11/07 04:50:37;;;;;;;14.10;5.75;;;;;;;;;;5010057;28;20713;-74
2021/11/07 04:53:10;;;;;;;21.30;6.25;;;;;;;;;;5017698;28;20217;-74
2021/11/07 04:55:39;;;;;;;17.40;5.72;;;;;;;;;;5008429;28;20222;-74
2021/11/07 04:58:05;;;;;;;15.98;5.55;;;;;;;;;;5017705;28;20186;-74
2021/11/07 05:00:32;;;;;;;13.45;5.30;;;;;;;;;;5010144;28;20186;-73
2021/11/07 05:02:59;;;;;;;17.20;5.10;;;;;;;;;;5012558;28;20205;-73
2021/11/07 05:05:25;;;;;;;14.98;5.07;;;;;;;;;;5011226;28;20675;-73
2021/11/07 05:07:51;;;;;;;16.05;5.18;;;;;;;;;;5017821;28;20194;-74
2021/11/07 05:10:17;;;;;;;14.65;4.70;;;;;;;;;;5018884;28;20209;-73
2021/11/07 05:12:43;;;;;;;15.80;4.15;;;;;;;;;;5007335;28;20186;-74
2021/11/07 05:15:08;;;;;;;13.05;4.65;;;;;;;;;;5015515;28;20240;-74
2021/11/07 05:17:34;;;;;;;25.42;5.20;;;;;;;;;;5007005;28;20201;-73
2021/11/07 05:20:00;;;;;;;25.40;4.18;;;;;;;;;;5017169;28;20563;-73
2021/11/07 05:22:25;;;;;;;20.55;4.63;;;;;;;;;;5008446;28;20320;-73
2021/11/07 05:24:50;;;;;;;20.05;4.57;;;;;;;;;;5015558;28;20280;-73
2021/11/07 05:27:16;;;;;;;19.58;5.20;;;;;;;;;;5009474;28;20188;-74
2021/11/07 05:29:41;;;;;;;20.15;4.30;;;;;;;;;;5017119;28;20292;-74
2021/11/07 05:32:07;;;;;;;16.92;4.22;;;;;;;;;;5010802;28;20178;-74
2021/11/07 05:34:33;;;;;;;24.73;5.03;;;;;;;;;;5015655;28;20186;-74
2021/11/07 05:36:58;;;;;;;22.25;4.20;;;;;;;;;;5014129;28;20198;-74
2021/11/07 05:39:24;;;;;;;19.40;4.32;;;;;;;;;;5011394;28;20641;-74
2021/11/07 05:41:50;;;;;;;18.70;3.70;;;;;;;;;;5016553;28;20186;-74
2021/11/07 05:44:15;;;;;;;16.93;4.63;;;;;;;;;;5006047;28;20197;-73
2021/11/07 05:46:43;;;;;;;30.73;4.28;;;;;;;;;;5012212;28;20204;-74
2021/11/07 05:49:08;;;;;;;20.38;4.65;;;;;;;;;;4313103;28;10000784;-74
2021/11/07 05:51:36;;;;;;;20.85;4.05;;;;;;;;;;5014826;28;20221;-73
2021/11/07 05:54:02;;;;;;;17.50;2.97;;;;;;;;;;5005203;28;20186;-73
2021/11/07 05:56:28;;;;;;;19.60;3.60;;;;;;;;;;5013696;28;20256;-72
2021/11/07 05:58:53;;;;;;;22.50;3.72;;;;;;;;;;5005336;28;20257;-73
2021/11/07 06:01:19;;;;;;;17.73;3.83;;;;;;;;;;5012274;28;20256;-73
2021/11/07 06:03:44;;;;;;;18.35;3.58;;;;;;;;;;5003490;28;20193;-72
2021/11/07 06:06:09;;;;;;;17.15;4.45;;;;;;;;;;5014692;28;20186;-73
2021/11/07 06:08:35;;;;;;;19.63;4.00;;;;;;;;;;5014682;28;20190;-72
2021/11/07 06:11:00;;;;;;;19.90;3.63;;;;;;;;;;5003020;28;20254;-73
2021/11/07 06:13:26;;;;;;;19.73;3.53;;;;;;;;;;5012904;28;20190;-72
2021/11/07 06:15:51;;;;;;;22.85;3.30;;;;;;;;;;5009680;28;20200;-72
2021/11/07 06:18:17;;;;;;;22.27;3.33;;;;;;;;;;5016351;28;20190;-73
2021/11/07 06:20:42;;;;;;;22.90;3.72;;;;;;;;;;5008098;28;20779;-72
2021/11/07 06:23:10;;;;;;;23.17;4.55;;;;;;;;;;5017269;28;20645;-73
2021/11/07 06:25:36;;;;;;;18.55;3.30;;;;;;;;;;5007421;28;21321;-72
2021/11/07 06:28:01;;;;;;;24.02;3.72;;;;;;;;;;5012743;28;20213;-73
2021/11/07 06:30:27;;;;;;;24.38;3.55;;;;;;;;;;5004725;28;20194;-72
2021/11/07 06:32:53;;;;;;;21.70;3.65;;;;;;;;;;5014996;28;20205;-72
2021/11/07 06:35:19;;;;;;;17.75;3.20;;;;;;;;;;5002899;28;20194;-74
2021/11/07 06:37:45;;;;;;;25.27;3.47;;;;;;;;;;5015120;28;20205;-73
2021/11/07 06:40:12;;;;;;;19.42;3.25;;;;;;;;;;5016340;28;20200;-72
2021/11/07 06:42:38;;;;;;;27.75;4.43;;;;;;;;;;5007472;28;20220;-73
2021/11/07 06:45:04;;;;;;;16.85;3.22;;;;;;;;;;5014268;28;20512;-72
2021/11/07 06:47:29;;;;;;;18.42;3.45;;;;;;;;;;5009764;28;20192;-72
2021/11/07 06:49:55;;;;;;;22.05;3.33;;;;;;;;;;5012033;28;20256;-73
2021/11/07 06:52:20;;;;;;;23.98;3.88;;;;;;;;;;5010437;28;20186;-72
2021/11/07 06:54:47;;;;;;;17.77;3.30;;;;;;;;;;5016106;28;20217;-73
2021/11/07 06:57:12;;;;;;;22.30;3.73;;;;;;;;;;5006040;28;20214;-72
2021/11/07 06:59:39;;;;;;;25.13;3.43;;;;;;;;;;5015165;28;20303;-72
2021/11/07 07:02:04;;;;;;;18.37;3.13;;;;;;;;;;5009438;28;20186;-72
2021/11/07 07:04:30;;;;;;;23.73;4.00;;;;;;;;;;5016612;28;20200;-72
2021/11/07 07:06:55;;;;;;;23.60;3.57;;;;;;;;;;5009363;28;20261;-72
2021/11/07 07:09:26;;;;;;;30.43;4.67;;;;;;;;;;5016193;28;20186;-72
2021/11/07 07:12:04;;;;;;;21.70;4.00;;;;;;;;;;5015890;28;20229;-71
2021/11/07 07:14:37;;;;;;;23.37;4.03;;;;;;;;;;5012059;28;20665;-72
2021/11/07 07:19:52;;;;;;;18.03;3.97;;;;;;;;;;5006847;28;20650;-72
2021/11/07 07:24:59;;;;;;;17.83;3.03;;;;;;;;;;5008381;28;20591;-72
2021/11/07 07:30:11;;;;;;;21.97;3.50;;;;;;;;;;5007543;28;20217;-72
2021/11/07 07:32:51;;;;;;;22.73;3.40;;;;;;;;;;5014346;28;20198;-73
2021/11/07 07:35:22;;;;;;;25.47;3.50;;;;;;;;;;5006410;28;20186;-72
2021/11/07 07:37:47;;;;;;;25.47;3.87;;;;;;;;;;5012673;28;20297;-72
2021/11/07 07:40:13;;;;;;;21.60;3.53;;;;;;;;;;5004543;28;20669;-73
2021/11/07 07:42:38;;;;;;;17.77;3.70;;;;;;;;;;5011322;28;20201;-73
2021/11/07 07:45:04;;;;;;;22.00;3.30;;;;;;;;;;5008208;28;20257;-73
2021/11/07 07:47:29;;;;;;;19.93;3.17;;;;;;;;;;5015316;28;20316;-74
2021/11/07 07:49:55;;;;;;;19.57;3.73;;;;;;;;;;5009096;28;20202;-73
2021/11/07 07:52:24;;;;;;;21.43;3.10;;;;;;;;;;5014996;28;20178;-73
2021/11/07 07:54:51;;;;;;;25.03;3.33;;;;;;;;;;5010122;28;20599;-73
2021/11/07 07:57:17;;;;;;;21.13;3.67;;;;;;;;;;5017892;28;20213;-72
2021/11/07 07:59:42;;;;;;;23.93;3.90;;;;;;;;;;5010601;28;20195;-72
2021/11/07 08:02:08;;;;;;;23.43;3.47;;;;;;;;;;5018655;28;20663;-72
2021/11/07 08:04:33;;;;;;;19.03;3.43;;;;;;;;;;5017480;28;20243;-72
2021/11/07 08:06:59;;;;;;;23.00;4.17;;;;;;;;;;5004693;28;21351;-72
2021/11/07 08:09:24;;;;;;;24.33;3.20;;;;;;;;;;5016550;28;20284;-73
2021/11/07 08:11:49;;;;;;;19.73;3.37;;;;;;;;;;5012749;28;20667;-72
2021/11/07 08:14:15;;;;;;;20.70;3.77;;;;;;;;;;5014378;28;20239;-73
2021/11/07 08:16:41;;;;;;;31.57;3.63;;;;;;;;;;5004284;28;20277;-73
2021/11/07 08:19:07;;;;;;;26.07;3.97;;;;;;;;;;5017020;28;20197;-73
2021/11/07 08:21:37;;;;;;;17.67;3.47;;;;;;;;;;5009169;28;20198;-72
2021/11/07 08:24:08;;;;;;;30.90;3.77;;;;;;;;;;5015416;28;20281;-72
2021/11/07 08:26:34;;;;;;;23.90;4.15;;;;;;;;;;5009630;28;20186;-72
2021/11/07 08:29:01;;;;;;;21.10;3.47;;;;;;;;;;5015952;28;20599;-73
2021/11/07 08:31:28;;;;;;;26.02;3.65;;;;;;;;;;5009144;28;20198;-73
2021/11/07 08:33:55;;;;;;;24.10;3.50;;;;;;;;;;5016406;28;20569;-73
2021/11/07 08:36:24;;;;;;;21.10;4.22;;;;;;;;;;5016238;28;20300;-73
2021/11/07 08:39:01;;;;;;;23.88;3.15;;;;;;;;;;5001170;28;20186;-74
2021/11/07 08:41:29;;;;;;;17.38;3.80;;;;;;;;;;5016691;28;20186;-73
2021/11/07 09:05:51;;;;;;;18.02;3.50;;;;;;;;;;5017660;28;20303;-73
2021/11/07 09:08:18;;;;;;;16.38;2.85;;;;;;;;;;5014088;28;20264;-73
2021/11/07 09:10:45;;;;;;;19.45;3.17;;;;;;;;;;5015929;28;20237;-73
2021/11/07 09:13:13;;;;;;;13.13;2.38;;;;;;;;;;5012183;28;20209;-72
2021/11/07 09:15:42;;;;;;;15.38;2.67;;;;;;;;;;5010336;28;20239;-72
2021/11/07 09:18:08;;;;;;;14.20;2.60;;;;;;;;;;5015779;28;20297;-72
2021/11/07 09:20:52;;;;;;;11.95;2.75;;;;;;;;;;5008095;28;20197;-73
2021/11/07 09:23:26;;;;;;;21.55;3.15;;;;;;;;;;5016795;28;20231;-74
2021/11/07 09:28:37;;;;;;;23.50;2.88;;;;;;;;;;5019071;28;20536;-73
2021/11/07 09:33:42;;;;;;;13.40;2.95;;;;;;;;;;5017740;28;20299;-73
2021/11/07 09:36:19;;;;;;;26.85;3.33;;;;;;;;;;5002332;28;20232;-72
2021/11/07 09:38:50;;;;;;;19.67;3.22;;;;;;;;;;5016311;28;20626;-72
2021/11/07 09:46:35;;;;;;;16.02;3.13;;;;;;;;;;5010744;28;20288;-73
2021/11/07 09:49:21;;;;;;;17.27;2.85;;;;;;;;;;5013919;28;20194;-73
2021/11/07 09:51:56;;;;;;;16.42;3.55;;;;;;;;;;5009826;28;20531;-72
2021/11/07 09:54:21;;;;;;;19.08;3.90;;;;;;;;;;5018381;28;20177;-72
2021/11/07 09:56:51;;;;;;;18.00;3.03;;;;;;;;;;5012003;28;20263;-72
2021/11/07 09:59:17;;;;;;;23.08;4.28;;;;;;;;;;5018080;28;20186;-72
2021/11/07 10:01:44;;;;;;;24.30;3.40;;;;;;;;;;5009990;28;20254;-73
2021/11/07 10:04:11;;;;;;;13.73;3.38;;;;;;;;;;5016171;28;20572;-74
2021/11/07 10:06:59;;;;;;;21.90;3.58;;;;;;;;;;5010618;28;20206;-72
2021/11/07 10:09:34;;;;;;;15.60;3.33;;;;;;;;;;5019395;28;20177;-71
2021/11/07 10:12:03;;;;;;;19.02;3.20;;;;;;;;;;5008599;28;21291;-72
2021/11/07 10:14:48;;;;;;;17.17;3.20;;;;;;;;;;5020320;28;20190;-73
2021/11/07 10:17:47;;;;;;;16.05;3.58;;;;;;;;;;5008990;28;20230;-72
2021/11/07 10:20:27;;;;;;;21.25;3.00;;;;;;;;;;5018356;28;20190;-73
2021/11/07 10:23:27;;;;;;;13.45;2.72;;;;;;;;;;5010228;28;20255;-72
2021/11/07 10:26:03;;;;;;;16.90;2.65;;;;;;;;;;5019837;28;20210;-72
2021/11/07 10:28:38;;;;;;;15.93;3.10;;;;;;;;;;5008513;28;20189;-73
2021/11/07 10:31:34;;;;;;;16.42;2.33;;;;;;;;;;5020836;28;20662;-72
2021/11/07 10:53:18;;;;;;;16.77;2.70;;;;;;;;;;5017357;28;20675;-71
2021/11/07 10:55:56;;;;;;;18.15;3.30;;;;;;;;;;5003185;28;20225;-71
2021/11/07 10:58:27;;;;;;;18.40;3.58;;;;;;;;;;5018148;28;20201;-72
2021/11/07 11:00:53;;;;;;;14.77;2.75;;;;;;;;;;5009126;28;20297;-72
2021/11/07 11:03:21;;;;;;;14.60;2.47;;;;;;;;;;5014767;28;20709;-72
2021/11/07 11:05:54;;;;;;;16.35;2.42;;;;;;;;;;5006501;28;20202;-72
2021/11/07 11:08:27;;;;;;;12.38;2.38;;;;;;;;;;5016264;28;20186;-72
2021/11/07 11:11:11;;;;;;;19.00;2.88;;;;;;;;;;5009541;28;20705;-73
2021/11/07 11:13:57;;;;;;;17.45;2.70;;;;;;;;;;5018802;28;20614;-72
2021/11/07 11:25:06;;;;;;;14.70;2.33;;;;;;;;;;5017704;28;20752;-72
2021/11/07 11:27:51;;;;;;;16.08;2.53;;;;;;;;;;5013156;28;20186;-72
2021/11/07 11:30:43;;;;;;;21.35;3.22;;;;;;;;;;5015979;28;20728;-73
2021/11/07 11:33:14;;;;;;;20.50;3.03;;;;;;;;;;5007707;28;20197;-72
2021/11/07 11:40:45;;;;;;;16.58;2.90;;;;;;;;;;5017023;28;20205;-72
2021/11/07 11:43:30;;;;;;;15.88;2.88;;;;;;;;;;5008676;28;20217;-71
2021/11/07 11:46:05;;;;;;;23.02;3.25;;;;;;;;;;5018324;28;20209;-72
2021/11/07 11:51:25;;;;;;;16.95;2.80;;;;;;;;;;5019754;28;20209;-72
2021/11/07 11:54:18;;;;;;;18.67;3.10;;;;;;;;;;5008792;28;20263;-72
2021/11/07 12:00:09;;;;;;;13.13;2.03;;;;;;;;;;5010699;28;20649;-72
2021/11/07 12:02:59;;;;;;;12.60;2.38;;;;;;;;;;5019100;28;20194;-73
2021/11/07 12:05:45;;;;;;;13.95;2.25;;;;;;;;;;5017095;28;20182;-72
2021/11/07 12:08:22;;;;;;;13.45;1.75;;;;;;;;;;5010150;28;20181;-71
2021/11/07 12:10:56;;;;;;;10.23;2.13;;;;;;;;;;5018801;28;20229;-71
2021/11/07 12:16:27;;;;;;;14.18;2.55;;;;;;;;;;5018403;28;20288;-71
2021/11/07 12:19:08;;;;;;;13.95;2.13;;;;;;;;;;5010211;28;20344;-71
2021/11/07 12:21:53;;;;;;;10.25;2.42;;;;;;;;;;5017097;28;20432;-71
2021/11/07 12:24:22;;;;;;;12.00;2.33;;;;;;;;;;5003157;28;20202;-72
2021/11/07 12:26:48;;;;;;;14.32;2.55;;;;;;;;;;5016997;28;20189;-71
2021/11/07 12:29:37;;;;;;;15.52;2.38;;;;;;;;;;5010031;28;20190;-70
2021/11/07 12:32:03;;;;;;;20.13;3.03;;;;;;;;;;5017066;28;20190;-72
2021/11/07 12:35:12;;;;;;;10.38;2.17;;;;;;;;;;5014164;28;20190;-72
2021/11/07 12:40:57;;;;;;;13.30;2.95;;;;;;;;;;5011334;28;20697;-72
2021/11/07 12:43:36;;;;;;;13.07;1.92;;;;;;;;;;5018100;28;20725;-71
2021/11/07 12:46:31;;;;;;;15.68;2.35;;;;;;;;;;5009698;28;20255;-71
2021/11/07 12:49:13;;;;;;;11.68;2.30;;;;;;;;;;5018542;28;20197;-71
2021/11/07 12:51:45;;;;;;;15.48;2.22;;;;;;;;;;5009584;28;20259;-71
2021/11/07 12:54:30;;;;;;;20.00;3.03;;;;;;;;;;5012756;28;20511;-70
2021/11/07 12:57:05;;;;;;;15.30;3.72;;;;;;;;;;5001112;28;20225;-71
2021/11/07 12:59:36;;;;;;;17.48;3.15;;;;;;;;;;5009285;28;20178;-71
2021/11/07 13:02:18;;;;;;;16.25;2.90;;;;;;;;;;5002483;28;20301;-72
2021/11/07 13:04:55;;;;;;;16.33;2.13;;;;;;;;;;5013416;28;20179;-70
2021/11/07 13:07:40;;;;;;;12.93;2.15;;;;;;;;;;5000757;28;20186;-71
2021/11/07 13:10:10;;;;;;;10.33;2.17;;;;;;;;;;5005288;28;20201;-73
2021/11/07 13:12:41;;;;;;;11.33;2.13;;;;;;;;;;5006873;28;20610;-73
2021/11/07 13:15:20;;;;;;;10.17;1.63;;;;;;;;;;5013326;28;20286;-72
2021/11/07 13:18:06;;;;;;;16.07;2.80;;;;;;;;;;5007117;28;20707;-71
2021/11/07 13:26:03;;;;;;;20.97;3.37;;;;;;;;;;5017808;28;20285;-72
2021/11/07 13:28:35;;;;;;;15.07;2.90;;;;;;;;;;5004203;28;20239;-72
2021/11/07 13:31:17;;;;;;;14.20;2.90;;;;;;;;;;5012845;28;20182;-70
2021/11/07 13:33:44;;;;;;;22.90;3.20;;;;;;;;;;5002599;28;20182;-71
2021/11/07 13:36:16;;;;;;;18.10;2.63;;;;;;;;;;5017066;28;20765;-71
2021/11/07 13:38:50;;;;;;;25.37;2.73;;;;;;;;;;5008726;28;20201;-71
2021/11/07 13:41:21;;;;;;;23.90;3.70;;;;;;;;;;5016443;28;20207;-72
2021/11/07 13:43:56;;;;;;;31.13;3.60;;;;;;;;;;5006386;28;20209;-71
2021/11/07 13:46:21;;;;;;;21.73;3.60;;;;;;;;;;5014912;28;20217;-71
2021/11/07 13:49:00;;;;;;;24.07;3.60;;;;;;;;;;5004856;28;20222;-71
2021/11/07 13:51:26;;;;;;;24.80;3.73;;;;;;;;;;5017877;28;20225;-71
2021/11/07 13:54:00;;;;;;;23.13;4.20;;;;;;;;;;5004931;28;20210;-71
2021/11/07 13:56:26;;;;;;;22.63;4.93;;;;;;;;;;5026636;28;20225;-71
2021/11/07 13:58:51;;;;;;;22.15;3.10;;;;;;;;;;5018390;28;20205;-71
2021/11/07 14:01:17;;;;;;;18.37;2.97;;;;;;;;;;5010547;28;20198;-70
2021/11/07 14:03:44;;;;;;;22.60;3.28;;;;;;;;;;5015105;28;20638;-71
2021/11/07 14:06:17;;;;;;;25.67;4.07;;;;;;;;;;5008847;28;20189;-71
2021/11/07 14:08:45;;;;;;;15.03;2.10;;;;;;;;;;5018675;28;20658;-69
2021/11/07 14:11:18;;;;;;;14.07;1.67;;;;;;;;;;5011104;28;20226;-71
2021/11/07 14:13:53;;;;;;;14.63;2.20;;;;;;;;;;5016419;28;20189;-71
2021/11/07 14:16:32;;;;;;;10.50;1.60;;;;;;;;;;5010838;28;20210;-71
2021/11/07 14:18:58;;;;;;;12.50;1.60;;;;;;;;;;5019910;28;21258;-71
2021/11/07 14:21:26;;;;;;;7.47;1.47;;;;;;;;;;5010337;28;20281;-72
2021/11/07 14:23:59;;;;;;;13.43;1.57;;;;;;;;;;5017363;28;20193;-72
2021/11/07 14:29:30;;;;;;;9.47;1.57;;;;;;;;;;5017566;28;20205;-71
2021/11/07 14:32:06;;;;;;;12.37;2.53;;;;;;;;;;5005962;28;20190;-71
2021/11/07 14:34:53;;;;;;;9.27;1.80;;;;;;;;;;5016852;28;20216;-71
2021/11/07 14:37:27;;;;;;;11.73;2.10;;;;;;;;;;5012783;28;20601;-71
2021/11/07 14:40:07;;;;;;;10.47;2.13;;;;;;;;;;5022136;28;20190;-71
2021/11/07 14:42:55;;;;;;;17.67;2.87;;;;;;;;;;5015021;28;20197;-71
2021/11/07 14:56:03;;;;;;;16.37;2.97;;;;;;;;;;5019996;28;20218;-71
2021/11/07 14:58:44;;;;;;;19.02;3.08;;;;;;;;;;5012437;28;20202;-71
2021/11/07 15:04:11;;;;;;;22.83;3.00;;;;;;;;;;5008779;28;20240;-71
2021/11/07 15:06:43;;;;;;;20.13;4.43;;;;;;;;;;5019130;28;20197;-71
2021/11/07 15:09:24;;;;;;;17.70;3.07;;;;;;;;;;5013353;28;20194;-71
2021/11/07 15:18:00;;;;;;;19.53;3.60;;;;;;;;;;5019746;28;20225;-71
2021/11/07 15:23:01;;;;;;;20.42;3.85;;;;;;;;;;5018947;28;20201;-71
2021/11/07 15:25:33;;;;;;;18.88;3.72;;;;;;;;;;5010450;28;20243;-71
2021/11/07 15:28:05;;;;;;;16.80;3.30;;;;;;;;;;5020478;28;20273;-71
2021/11/07 15:30:35;;;;;;;20.30;2.90;;;;;;;;;;5011534;28;20546;-71
2021/11/07 15:33:13;;;;;;;24.40;3.43;;;;;;;;;;5013219;28;20189;-71
2021/11/07 15:35:47;;;;;;;16.93;3.20;;;;;;;;;;5008864;28;20205;-72
2021/11/07 15:38:24;;;;;;;20.53;3.40;;;;;;;;;;5017978;28;20642;-71
2021/11/07 15:40:52;;;;;;;18.00;3.10;;;;;;;;;;5008589;28;20193;-71
2021/11/07 15:43:26;;;;;;;16.10;3.10;;;;;;;;;;5015158;28;20189;-71
2021/11/07 15:46:04;;;;;;;20.03;3.07;;;;;;;;;;5006525;28;20238;-71
2021/11/07 15:48:37;;;;;;;22.27;3.40;;;;;;;;;;5017644;28;20194;-72
2021/11/07 15:51:12;;;;;;;24.37;3.63;;;;;;;;;;5009633;28;20244;-72
2021/11/07 15:59:19;;;;;;;24.13;4.23;;;;;;;;;;5014050;28;20558;-71
2021/11/07 16:02:03;;;;;;;20.67;3.47;;;;;;;;;;5005234;28;20637;-72
2021/11/07 16:04:53;;;;;;;22.70;3.93;;;;;;;;;;5013972;28;20510;-72
2021/11/07 16:07:23;;;;;;;19.77;3.80;;;;;;;;;;5007487;28;20190;-72
2021/11/07 16:12:34;;;;;;;27.73;4.33;;;;;;;;;;5009162;28;20237;-72
2021/11/07 16:17:49;;;;;;;24.53;4.70;;;;;;;;;;5008919;28;21272;-71
2021/11/07 16:20:18;;;;;;;25.90;4.27;;;;;;;;;;5017780;28;20178;-71
2021/11/07 16:22:46;;;;;;;24.15;3.58;;;;;;;;;;5007951;28;20273;-72
2021/11/07 16:25:14;;;;;;;26.70;3.65;;;;;;;;;;5018567;28;20186;-72
2021/11/07 16:27:42;;;;;;;22.52;3.95;;;;;;;;;;5007120;28;20202;-72
2021/11/07 16:30:07;;;;;;;19.17;3.23;;;;;;;;;;5015981;28;20356;-72
2021/11/07 16:32:44;;;;;;;19.92;3.63;;;;;;;;;;5003284;28;20246;-73
2021/11/07 16:35:13;;;;;;;21.50;3.83;;;;;;;;;;5014317;28;20213;-71
2021/11/07 16:37:45;;;;;;;16.27;3.38;;;;;;;;;;5003637;28;21714;-72
2021/11/07 16:42:39;;;;;;;24.85;4.15;;;;;;;;;;5018897;28;20198;-71
2021/11/07 16:45:06;;;;;;;18.20;3.20;;;;;;;;;;5014556;28;20182;-71
2021/11/07 16:47:34;;;;;;;17.80;3.00;;;;;;;;;;5014059;28;20190;-71
2021/11/07 16:50:01;;;;;;;16.43;3.63;;;;;;;;;;5008677;28;21710;-72
2021/11/07 16:52:29;;;;;;;12.97;3.67;;;;;;;;;;5016362;28;20197;-72
2021/11/07 16:55:01;;;;;;;20.43;3.00;;;;;;;;;;5007328;28;20630;-71
2021/11/07 16:57:29;;;;;;;17.40;3.10;;;;;;;;;;5013587;28;20210;-71
2021/11/07 17:00:00;;;;;;;19.00;3.00;;;;;;;;;;5006251;28;20190;-72
2021/11/07 17:02:35;;;;;;;13.03;2.70;;;;;;;;;;5016460;28;20321;-72
2021/11/07 17:09:59;;;;;;;15.60;3.47;;;;;;;;;;5008730;28;20198;-71
2021/11/07 17:12:29;;;;;;;19.20;3.40;;;;;;;;;;5016830;28;20233;-71